Time;durP1;ratioP1;P1;durP2;ratioP2;P2;SDS_P1;SDS_P2;PMS_P1;PMS_P2;Temp;Humidity;BMP_temperature;BMP_pressure;BME280_temperature;BME280_humidity;BME280_pressure;Samples;Min_cycle;Max_cycle;Signal;HPM_P1;HPM_P2
2021/12/27 00:01:30;;;;;;;16.40;4.87;;;;;;;;;;5112368;28;20288;-78
2021/12/27 00:03:57;;;;;;;15.80;4.87;;;;;;;;;;5111790;28;20288;-77
2021/12/27 00:06:24;;;;;;;20.17;5.03;;;;;;;;;;5112751;28;20240;-77
2021/12/27 00:08:52;;;;;;;14.90;5.13;;;;;;;;;;5112297;28;20194;-77
2021/12/27 00:11:20;;;;;;;14.60;5.40;;;;;;;;;;5112771;28;20210;-77
2021/12/27 00:13:48;;;;;;;15.57;5.47;;;;;;;;;;5112332;28;20322;-77
2021/12/27 00:16:15;;;;;;;15.23;5.37;;;;;;;;;;5104723;28;20194;-77
2021/12/27 00:18:44;;;;;;;11.70;5.00;;;;;;;;;;5112334;28;20225;-77
2021/12/27 00:21:11;;;;;;;14.53;4.37;;;;;;;;;;5112388;28;20728;-77
2021/12/27 00:23:38;;;;;;;14.03;4.80;;;;;;;;;;5112459;28;20268;-77
2021/12/27 00:26:05;;;;;;;13.53;4.57;;;;;;;;;;5112564;28;20289;-77
2021/12/27 00:28:33;;;;;;;17.43;5.00;;;;;;;;;;5112339;28;20297;-77
2021/12/27 00:31:01;;;;;;;9.87;4.97;;;;;;;;;;5112081;28;20193;-77
2021/12/27 00:33:28;;;;;;;15.20;5.20;;;;;;;;;;5112650;28;20293;-77
2021/12/27 00:35:57;;;;;;;17.37;5.40;;;;;;;;;;5112067;28;20752;-77
2021/12/27 00:38:24;;;;;;;13.67;4.90;;;;;;;;;;5111610;28;20268;-77
2021/12/27 00:40:51;;;;;;;11.63;4.83;;;;;;;;;;5112098;28;20196;-83
2021/12/27 00:43:19;;;;;;;14.60;5.57;;;;;;;;;;5112278;28;20200;-82
2021/12/27 00:45:47;;;;;;;11.97;4.73;;;;;;;;;;5110173;28;20200;-83
2021/12/27 00:48:16;;;;;;;15.43;5.40;;;;;;;;;;5111249;27;20285;-82
2021/12/27 00:50:43;;;;;;;15.03;5.70;;;;;;;;;;5111992;28;20200;-83
2021/12/27 00:53:11;;;;;;;16.03;5.30;;;;;;;;;;5111047;27;20245;-82
2021/12/27 00:55:39;;;;;;;14.77;5.60;;;;;;;;;;5104244;28;20245;-83
2021/12/27 00:58:06;;;;;;;15.80;6.10;;;;;;;;;;5111287;28;20280;-83
2021/12/27 01:00:33;;;;;;;15.90;5.70;;;;;;;;;;5111030;28;20200;-83
2021/12/27 01:03:01;;;;;;;17.53;5.83;;;;;;;;;;5111904;28;20225;-83
2021/12/27 01:05:28;;;;;;;13.30;5.77;;;;;;;;;;5109384;28;20792;-83
2021/12/27 01:07:56;;;;;;;13.93;5.40;;;;;;;;;;5110852;28;20204;-83
2021/12/27 01:13:21;;;;;;;19.13;6.23;;;;;;;;;;5106039;28;20714;-83
2021/12/27 01:15:51;;;;;;;18.40;6.07;;;;;;;;;;5111058;28;20210;-82
2021/12/27 01:18:19;;;;;;;14.60;6.00;;;;;;;;;;5112292;28;20224;-83
2021/12/27 01:20:47;;;;;;;20.17;6.20;;;;;;;;;;5110638;28;20669;-83
2021/12/27 01:23:14;;;;;;;15.20;5.90;;;;;;;;;;5111395;28;20604;-83
2021/12/27 01:25:43;;;;;;;17.17;6.27;;;;;;;;;;5110853;28;20716;-83
2021/12/27 01:28:10;;;;;;;15.60;6.27;;;;;;;;;;5110272;28;20687;-82
2021/12/27 01:30:46;;;;;;;18.03;6.63;;;;;;;;;;5111448;28;20194;-82
2021/12/27 01:33:14;;;;;;;16.63;6.90;;;;;;;;;;5103857;28;20551;-83
2021/12/27 01:35:41;;;;;;;13.33;5.47;;;;;;;;;;5111242;28;20660;-83
2021/12/27 01:38:08;;;;;;;16.23;5.93;;;;;;;;;;5110751;28;20229;-83
2021/12/27 01:40:35;;;;;;;15.27;5.87;;;;;;;;;;5111085;28;20709;-83
2021/12/27 01:43:07;;;;;;;14.63;6.00;;;;;;;;;;5110683;28;20238;-83
2021/12/27 01:45:35;;;;;;;14.60;5.10;;;;;;;;;;5111628;28;20221;-83
2021/12/27 01:48:03;;;;;;;14.23;5.60;;;;;;;;;;5110734;28;20229;-83
2021/12/27 01:50:30;;;;;;;15.40;4.90;;;;;;;;;;5110625;28;20899;-82
2021/12/27 01:52:57;;;;;;;14.30;5.27;;;;;;;;;;5110462;28;20716;-83
2021/12/27 01:55:25;;;;;;;13.83;4.73;;;;;;;;;;5106397;28;20348;-83
2021/12/27 01:57:52;;;;;;;15.70;5.27;;;;;;;;;;5110886;28;20236;-83
2021/12/27 02:00:21;;;;;;;11.37;3.83;;;;;;;;;;5110522;28;20225;-83
2021/12/27 02:02:48;;;;;;;8.53;4.37;;;;;;;;;;5111078;28;20241;-83
2021/12/27 02:05:15;;;;;;;11.67;4.30;;;;;;;;;;5110737;28;20280;-83
2021/12/27 02:07:42;;;;;;;15.27;4.93;;;;;;;;;;5110962;28;20356;-82
2021/12/27 02:10:11;;;;;;;11.57;4.83;;;;;;;;;;5110167;28;20281;-83
2021/12/27 02:12:39;;;;;;;11.13;4.27;;;;;;;;;;5102370;28;20300;-83
2021/12/27 02:15:09;;;;;;;9.50;4.20;;;;;;;;;;5110638;28;20193;-83
2021/12/27 02:17:38;;;;;;;13.53;5.00;;;;;;;;;;5111435;28;20201;-82
2021/12/27 02:20:08;;;;;;;15.03;4.73;;;;;;;;;;5110478;28;20279;-83
2021/12/27 02:22:37;;;;;;;11.10;4.93;;;;;;;;;;5109129;28;20757;-83
2021/12/27 02:25:06;;;;;;;16.77;4.60;;;;;;;;;;5111088;28;20281;-83
2021/12/27 02:27:33;;;;;;;13.47;4.30;;;;;;;;;;5110145;28;20591;-83
2021/12/27 02:30:00;;;;;;;13.63;4.90;;;;;;;;;;5110949;28;20284;-83
2021/12/27 02:32:28;;;;;;;12.60;4.93;;;;;;;;;;5113573;28;20664;-83
2021/12/27 02:34:55;;;;;;;15.73;4.50;;;;;;;;;;5115202;28;20273;-83
2021/12/27 02:37:24;;;;;;;13.63;4.77;;;;;;;;;;5115059;28;20748;-83
2021/12/27 02:39:51;;;;;;;11.70;4.43;;;;;;;;;;5115141;28;20251;-83
2021/12/27 02:42:19;;;;;;;12.73;4.73;;;;;;;;;;5114070;28;20620;-83
2021/12/27 02:44:47;;;;;;;18.40;4.97;;;;;;;;;;5112255;28;20189;-82
2021/12/27 02:47:16;;;;;;;10.93;4.43;;;;;;;;;;5114416;28;20707;-83
2021/12/27 02:49:43;;;;;;;12.43;4.43;;;;;;;;;;5109845;28;20289;-82
2021/12/27 02:52:11;;;;;;;15.37;4.47;;;;;;;;;;5115135;28;20266;-82
2021/12/27 02:54:43;;;;;;;11.43;4.80;;;;;;;;;;5114128;28;20198;-83
2021/12/27 02:57:11;;;;;;;16.00;5.20;;;;;;;;;;5113707;28;20312;-83
2021/12/27 02:59:38;;;;;;;11.90;4.83;;;;;;;;;;5114528;28;20280;-83
2021/12/27 03:02:05;;;;;;;12.87;4.70;;;;;;;;;;5114061;28;20281;-82
2021/12/27 03:04:37;;;;;;;9.23;4.97;;;;;;;;;;5115117;28;20277;-83
2021/12/27 03:07:04;;;;;;;11.53;4.73;;;;;;;;;;5114222;28;20672;-83
2021/12/27 03:09:32;;;;;;;10.40;4.70;;;;;;;;;;5108336;28;20244;-82
2021/12/27 03:12:00;;;;;;;11.90;5.20;;;;;;;;;;5113263;28;20690;-82
2021/12/27 03:14:27;;;;;;;12.03;5.20;;;;;;;;;;5114285;28;20297;-82
2021/12/27 03:16:55;;;;;;;10.57;4.60;;;;;;;;;;5113057;28;20716;-82
2021/12/27 03:19:22;;;;;;;10.43;5.27;;;;;;;;;;5113961;28;20225;-82
2021/12/27 03:21:49;;;;;;;9.30;4.80;;;;;;;;;;5113632;28;20285;-82
2021/12/27 03:24:16;;;;;;;10.40;4.77;;;;;;;;;;5113463;28;20285;-83
2021/12/27 03:26:43;;;;;;;9.87;4.87;;;;;;;;;;5114281;28;20618;-82
2021/12/27 03:29:12;;;;;;;14.07;5.27;;;;;;;;;;5113625;28;20624;-82
2021/12/27 03:31:39;;;;;;;9.63;5.60;;;;;;;;;;5113921;28;20289;-82
2021/12/27 03:34:07;;;;;;;9.43;5.60;;;;;;;;;;5114423;28;20302;-82
2021/12/27 03:36:38;;;;;;;10.93;5.63;;;;;;;;;;5113684;28;20197;-82
2021/12/27 03:39:07;;;;;;;9.73;5.80;;;;;;;;;;5113482;28;20200;-82
2021/12/27 03:41:34;;;;;;;13.53;5.50;;;;;;;;;;5113647;28;20194;-82
2021/12/27 03:44:01;;;;;;;8.47;4.80;;;;;;;;;;5106900;28;20285;-82
2021/12/27 03:46:30;;;;;;;11.23;5.10;;;;;;;;;;5113881;28;20229;-82
2021/12/27 03:48:57;;;;;;;13.03;5.30;;;;;;;;;;5112481;28;20634;-82
2021/12/27 03:51:25;;;;;;;11.73;5.67;;;;;;;;;;5113140;28;20225;-82
2021/12/27 03:53:52;;;;;;;10.20;5.43;;;;;;;;;;5112959;28;20245;-82
2021/12/27 03:56:23;;;;;;;12.00;5.20;;;;;;;;;;5113854;28;20245;-82
2021/12/27 03:58:55;;;;;;;10.07;5.43;;;;;;;;;;5112255;28;20198;-82
2021/12/27 04:01:23;;;;;;;7.23;4.63;;;;;;;;;;5113253;28;20649;-83
2021/12/27 04:03:52;;;;;;;6.50;4.60;;;;;;;;;;5113052;28;20247;-82
2021/12/27 04:06:21;;;;;;;7.97;4.53;;;;;;;;;;5113705;27;20285;-82
2021/12/27 04:08:49;;;;;;;8.10;4.60;;;;;;;;;;5112827;28;20232;-82
2021/12/27 04:11:16;;;;;;;6.30;4.40;;;;;;;;;;5113235;28;20280;-82
2021/12/27 04:13:44;;;;;;;6.20;4.20;;;;;;;;;;5112918;28;20328;-82
2021/12/27 04:16:11;;;;;;;4.80;3.90;;;;;;;;;;5112534;28;20281;-82
2021/12/27 04:18:38;;;;;;;7.23;3.97;;;;;;;;;;5112972;28;20287;-82
2021/12/27 04:21:07;;;;;;;8.03;3.57;;;;;;;;;;5109740;28;20286;-82
2021/12/27 04:23:34;;;;;;;5.30;3.87;;;;;;;;;;5106980;28;20272;-82
2021/12/27 04:26:01;;;;;;;6.13;3.50;;;;;;;;;;5112252;28;20648;-82
2021/12/27 04:28:28;;;;;;;6.37;3.60;;;;;;;;;;5113201;28;20198;-82
2021/12/27 04:30:56;;;;;;;6.93;3.43;;;;;;;;;;5112833;28;20627;-82
2021/12/27 04:33:23;;;;;;;6.43;3.60;;;;;;;;;;5111843;28;20249;-82
2021/12/27 04:35:50;;;;;;;5.30;3.83;;;;;;;;;;5112763;28;20285;-82
2021/12/27 04:38:19;;;;;;;4.33;3.43;;;;;;;;;;5111906;28;20261;-82
2021/12/27 04:40:47;;;;;;;4.87;3.77;;;;;;;;;;5112460;28;20567;-83
2021/12/27 04:43:16;;;;;;;4.97;3.63;;;;;;;;;;5112210;28;20670;-82
2021/12/27 04:45:44;;;;;;;6.27;4.00;;;;;;;;;;5113087;28;20301;-82
2021/12/27 04:48:12;;;;;;;4.50;3.50;;;;;;;;;;5110954;28;20684;-82
2021/12/27 04:50:39;;;;;;;3.33;2.90;;;;;;;;;;5111399;28;20260;-82
2021/12/27 04:53:07;;;;;;;8.70;3.40;;;;;;;;;;5112037;28;20245;-82
2021/12/27 04:55:36;;;;;;;4.90;3.47;;;;;;;;;;5111376;28;20252;-82
2021/12/27 04:58:03;;;;;;;5.37;3.27;;;;;;;;;;5112224;28;20281;-82
2021/12/27 05:00:30;;;;;;;3.63;3.07;;;;;;;;;;5110879;28;20296;-81
2021/12/27 05:02:59;;;;;;;5.17;3.30;;;;;;;;;;5111547;28;20276;-82
2021/12/27 05:05:26;;;;;;;4.93;3.30;;;;;;;;;;5110897;28;20284;-82
2021/12/27 05:07:53;;;;;;;3.43;2.50;;;;;;;;;;5109948;28;20225;-82
2021/12/27 05:10:21;;;;;;;3.20;2.60;;;;;;;;;;5111694;28;20300;-82
2021/12/27 05:12:50;;;;;;;3.50;2.70;;;;;;;;;;5110442;28;20308;-82
2021/12/27 05:15:17;;;;;;;2.83;2.40;;;;;;;;;;5106819;28;20225;-82
2021/12/27 05:17:44;;;;;;;5.23;3.00;;;;;;;;;;5111655;27;20820;-82
2021/12/27 05:20:12;;;;;;;3.33;2.57;;;;;;;;;;5111224;28;20196;-82
2021/12/27 05:22:39;;;;;;;4.40;2.67;;;;;;;;;;5110817;28;20229;-82
2021/12/27 05:25:09;;;;;;;4.00;2.77;;;;;;;;;;5111944;28;20388;-82
2021/12/27 05:27:38;;;;;;;4.13;2.30;;;;;;;;;;5111708;28;20250;-82
2021/12/27 05:30:07;;;;;;;3.53;2.50;;;;;;;;;;5111790;28;20710;-82
2021/12/27 05:32:35;;;;;;;3.10;2.60;;;;;;;;;;5111130;28;20229;-82
2021/12/27 05:35:02;;;;;;;3.50;3.20;;;;;;;;;;5110096;28;20197;-82
2021/12/27 05:37:30;;;;;;;3.70;2.50;;;;;;;;;;5111376;28;20328;-82
2021/12/27 05:39:58;;;;;;;6.20;2.67;;;;;;;;;;5111177;28;20289;-83
2021/12/27 05:42:25;;;;;;;3.37;2.40;;;;;;;;;;5111497;28;20221;-82
2021/12/27 05:44:52;;;;;;;2.83;2.40;;;;;;;;;;5110686;28;20284;-82
2021/12/27 05:47:21;;;;;;;2.80;2.00;;;;;;;;;;5105322;28;20217;-82
2021/12/27 05:49:48;;;;;;;3.53;2.60;;;;;;;;;;5111026;28;20280;-82
2021/12/27 05:52:15;;;;;;;2.70;2.40;;;;;;;;;;5111066;28;20237;-81
2021/12/27 05:54:42;;;;;;;2.63;2.27;;;;;;;;;;5110614;28;20300;-82
2021/12/27 05:57:10;;;;;;;2.93;2.20;;;;;;;;;;5110941;28;20305;-82
2021/12/27 05:59:37;;;;;;;4.43;2.03;;;;;;;;;;5110626;28;20304;-82
2021/12/27 06:02:04;;;;;;;2.80;2.03;;;;;;;;;;5110164;28;20284;-82
2021/12/27 06:04:33;;;;;;;3.03;2.03;;;;;;;;;;5110679;28;20300;-82
2021/12/27 06:07:00;;;;;;;4.13;2.27;;;;;;;;;;5112313;28;20281;-82
2021/12/27 06:09:27;;;;;;;3.17;2.00;;;;;;;;;;5114892;28;20280;-82
2021/12/27 06:11:54;;;;;;;2.63;2.30;;;;;;;;;;5115688;28;20225;-82
2021/12/27 06:14:21;;;;;;;3.23;2.40;;;;;;;;;;5113786;28;20300;-82
2021/12/27 06:16:49;;;;;;;4.43;2.47;;;;;;;;;;5115697;28;20281;-83
2021/12/27 06:19:17;;;;;;;3.70;2.17;;;;;;;;;;5114565;28;20402;-82
2021/12/27 06:21:46;;;;;;;3.73;2.57;;;;;;;;;;5107125;28;20200;-82
2021/12/27 06:24:14;;;;;;;2.87;2.33;;;;;;;;;;5115029;28;20754;-82
2021/12/27 06:26:41;;;;;;;4.00;2.30;;;;;;;;;;5113981;28;20237;-81
2021/12/27 06:29:08;;;;;;;3.97;2.47;;;;;;;;;;5115061;28;20229;-81
2021/12/27 06:31:35;;;;;;;4.40;2.50;;;;;;;;;;5114362;28;20232;-82
2021/12/27 06:34:03;;;;;;;3.60;2.67;;;;;;;;;;5114264;28;20699;-81
2021/12/27 06:36:30;;;;;;;4.17;2.80;;;;;;;;;;5114757;28;20636;-81
2021/12/27 06:38:58;;;;;;;3.70;2.50;;;;;;;;;;5108784;28;20197;-81
2021/12/27 06:41:26;;;;;;;4.60;2.50;;;;;;;;;;5114506;28;20225;-81
2021/12/27 06:43:53;;;;;;;8.20;2.83;;;;;;;;;;5114327;28;20234;-81
2021/12/27 06:46:20;;;;;;;6.13;2.90;;;;;;;;;;5113323;28;20277;-82
2021/12/27 06:48:47;;;;;;;7.47;3.27;;;;;;;;;;5113143;28;20292;-81
2021/12/27 06:51:15;;;;;;;7.10;2.80;;;;;;;;;;5110991;28;20736;-81
2021/12/27 06:53:42;;;;;;;8.93;3.03;;;;;;;;;;5114466;28;20222;-81
2021/12/27 06:56:11;;;;;;;4.30;2.50;;;;;;;;;;5109655;28;20220;-86
2021/12/27 06:58:39;;;;;;;8.07;2.80;;;;;;;;;;5110785;28;20293;-83
2021/12/27 07:01:06;;;;;;;9.97;3.47;;;;;;;;;;5110015;28;20304;-81
2021/12/27 07:03:33;;;;;;;15.70;3.47;;;;;;;;;;5113002;28;20245;-82
2021/12/27 07:06:00;;;;;;;11.97;3.20;;;;;;;;;;5113188;28;20284;-82
2021/12/27 07:08:28;;;;;;;13.30;3.00;;;;;;;;;;5113005;28;20229;-82
2021/12/27 07:10:55;;;;;;;11.67;3.50;;;;;;;;;;5112014;28;20350;-87
2021/12/27 07:13:24;;;;;;;15.27;3.20;;;;;;;;;;5110068;28;20322;-85
2021/12/27 07:15:51;;;;;;;17.90;3.00;;;;;;;;;;5113905;27;20236;-85
2021/12/27 07:18:23;;;;;;;18.00;3.27;;;;;;;;;;5111423;28;20619;-85
2021/12/27 07:20:50;;;;;;;16.43;3.40;;;;;;;;;;5110343;28;20194;-85
2021/12/27 07:23:18;;;;;;;21.37;3.63;;;;;;;;;;5111208;28;20206;-85
2021/12/27 07:25:45;;;;;;;21.17;3.33;;;;;;;;;;5107059;28;20293;-85
2021/12/27 07:28:12;;;;;;;22.40;3.57;;;;;;;;;;5111602;28;20221;-85
2021/12/27 07:30:41;;;;;;;15.83;3.67;;;;;;;;;;5105498;28;20280;-85
2021/12/27 07:33:08;;;;;;;17.80;3.03;;;;;;;;;;5111961;28;20293;-84
2021/12/27 07:35:35;;;;;;;31.40;4.27;;;;;;;;;;5109363;28;20288;-84
2021/12/27 07:38:03;;;;;;;25.57;3.80;;;;;;;;;;5111567;28;20316;-85
2021/12/27 07:40:30;;;;;;;24.23;3.53;;;;;;;;;;5112793;28;20222;-84
2021/12/27 07:42:57;;;;;;;24.47;3.80;;;;;;;;;;5112357;28;20324;-84
2021/12/27 07:45:25;;;;;;;21.97;3.40;;;;;;;;;;5111089;28;20228;-85
2021/12/27 07:47:53;;;;;;;23.83;3.63;;;;;;;;;;5111384;28;20294;-84
2021/12/27 07:50:21;;;;;;;22.07;3.70;;;;;;;;;;5112180;28;20668;-84
2021/12/27 07:52:48;;;;;;;20.10;3.57;;;;;;;;;;5113002;28;20301;-84
2021/12/27 07:55:15;;;;;;;25.70;3.90;;;;;;;;;;5112285;28;20241;-85
2021/12/27 07:57:43;;;;;;;27.00;3.63;;;;;;;;;;5112743;28;20281;-85
2021/12/27 08:00:11;;;;;;;22.13;3.57;;;;;;;;;;5111985;28;20201;-85
2021/12/27 08:02:38;;;;;;;27.40;4.37;;;;;;;;;;5111848;28;20703;-84
2021/12/27 08:05:07;;;;;;;28.47;3.83;;;;;;;;;;5112557;28;20279;-84
2021/12/27 08:07:36;;;;;;;22.83;4.00;;;;;;;;;;5111367;28;20190;-84
2021/12/27 08:10:04;;;;;;;25.57;3.80;;;;;;;;;;5112679;28;20213;-84
2021/12/27 08:12:31;;;;;;;23.80;4.30;;;;;;;;;;5112637;28;20225;-84
2021/12/27 08:14:58;;;;;;;23.60;4.10;;;;;;;;;;5112174;28;20217;-84
2021/12/27 08:17:25;;;;;;;24.27;4.07;;;;;;;;;;5111344;28;20201;-85
2021/12/27 08:19:52;;;;;;;30.70;5.20;;;;;;;;;;5110987;27;20221;-84
2021/12/27 08:22:21;;;;;;;23.83;3.87;;;;;;;;;;5103548;28;20251;-85
2021/12/27 08:24:48;;;;;;;25.63;4.03;;;;;;;;;;5108202;28;20225;-85
2021/12/27 08:27:16;;;;;;;29.93;4.43;;;;;;;;;;5112553;28;20223;-85
2021/12/27 08:29:43;;;;;;;31.17;4.70;;;;;;;;;;5111765;28;20289;-85
2021/12/27 08:32:10;;;;;;;34.53;4.60;;;;;;;;;;5112320;28;20626;-86
2021/12/27 08:34:37;;;;;;;35.40;4.27;;;;;;;;;;5110813;28;20214;-84
2021/12/27 08:37:05;;;;;;;27.03;4.20;;;;;;;;;;5111559;27;20324;-86
2021/12/27 08:39:34;;;;;;;33.07;4.53;;;;;;;;;;5111133;28;20733;-86
2021/12/27 08:42:02;;;;;;;27.83;4.73;;;;;;;;;;5102748;28;20198;-85
2021/12/27 08:44:29;;;;;;;32.83;5.13;;;;;;;;;;5111506;28;20224;-85
2021/12/27 08:46:56;;;;;;;38.13;5.27;;;;;;;;;;5111527;28;20308;-86
2021/12/27 08:49:23;;;;;;;41.30;5.63;;;;;;;;;;5111542;28;20225;-86
2021/12/27 08:51:50;;;;;;;31.50;4.57;;;;;;;;;;5111931;28;20250;-85
2021/12/27 08:54:18;;;;;;;37.53;5.03;;;;;;;;;;5101653;28;20225;-86
2021/12/27 08:56:46;;;;;;;37.27;5.27;;;;;;;;;;5102977;28;20693;-86
2021/12/27 08:59:14;;;;;;;37.10;5.13;;;;;;;;;;5108534;28;20225;-85
2021/12/27 09:01:41;;;;;;;42.43;5.83;;;;;;;;;;5107728;28;20297;-85
2021/12/27 09:04:09;;;;;;;37.10;5.80;;;;;;;;;;5103887;28;20390;-86
2021/12/27 09:06:36;;;;;;;40.23;6.40;;;;;;;;;;5108586;28;20247;-86
2021/12/27 09:09:04;;;;;;;39.93;6.40;;;;;;;;;;5110334;28;20220;-86
2021/12/27 09:11:32;;;;;;;43.53;6.20;;;;;;;;;;5110255;28;20222;-84
2021/12/27 09:14:00;;;;;;;37.93;6.13;;;;;;;;;;5110462;27;20672;-85
2021/12/27 09:16:28;;;;;;;38.20;5.90;;;;;;;;;;5109439;28;20292;-85
2021/12/27 09:18:55;;;;;;;35.10;6.37;;;;;;;;;;5110426;28;20210;-84
2021/12/27 09:21:24;;;;;;;37.37;6.17;;;;;;;;;;5108438;28;20288;-85
2021/12/27 09:23:52;;;;;;;37.80;6.17;;;;;;;;;;5110448;28;20197;-86
2021/12/27 09:26:19;;;;;;;36.83;5.80;;;;;;;;;;5110672;27;20285;-85
2021/12/27 09:28:46;;;;;;;32.47;5.27;;;;;;;;;;5110022;28;20244;-85
2021/12/27 09:31:15;;;;;;;34.10;5.83;;;;;;;;;;5111124;28;20289;-85
2021/12/27 09:33:42;;;;;;;27.60;6.63;;;;;;;;;;5109028;28;20284;-85
2021/12/27 09:36:10;;;;;;;30.63;5.63;;;;;;;;;;5110812;28;20285;-84
2021/12/27 09:38:37;;;;;;;33.00;5.20;;;;;;;;;;5112682;27;20272;-84
2021/12/27 09:41:05;;;;;;;31.67;6.17;;;;;;;;;;5109952;28;20286;-85
2021/12/27 09:43:32;;;;;;;30.53;4.97;;;;;;;;;;5111068;28;20290;-85
2021/12/27 09:45:59;;;;;;;29.60;6.50;;;;;;;;;;5108444;28;20201;-85
2021/12/27 09:48:28;;;;;;;28.30;5.27;;;;;;;;;;5107342;28;20221;-85
2021/12/27 09:50:57;;;;;;;33.17;6.30;;;;;;;;;;5109730;28;20225;-85
2021/12/27 09:53:24;;;;;;;32.53;5.93;;;;;;;;;;5109594;28;20285;-85
2021/12/27 09:55:52;;;;;;;32.40;6.73;;;;;;;;;;5108380;28;20654;-84
2021/12/27 09:58:20;;;;;;;34.53;6.30;;;;;;;;;;5109769;28;20276;-85
2021/12/27 10:00:47;;;;;;;28.43;6.53;;;;;;;;;;5110945;28;20215;-84
2021/12/27 10:03:14;;;;;;;34.37;5.93;;;;;;;;;;5109896;28;20647;-85
2021/12/27 10:05:43;;;;;;;42.60;6.83;;;;;;;;;;5109650;28;20288;-84
2021/12/27 10:08:10;;;;;;;36.30;6.70;;;;;;;;;;5110105;28;20221;-85
2021/12/27 10:10:38;;;;;;;36.07;6.17;;;;;;;;;;5110852;28;20612;-85
2021/12/27 10:13:08;;;;;;;40.97;7.03;;;;;;;;;;5110849;28;20240;-84
2021/12/27 10:15:36;;;;;;;43.63;7.37;;;;;;;;;;5110297;28;20221;-85
2021/12/27 10:18:11;;;;;;;39.03;6.80;;;;;;;;;;5110776;28;20221;-85
2021/12/27 10:20:38;;;;;;;45.23;7.90;;;;;;;;;;5109130;28;20204;-85
2021/12/27 10:23:07;;;;;;;39.07;7.43;;;;;;;;;;5109595;28;20237;-85
2021/12/27 10:25:34;;;;;;;35.67;6.77;;;;;;;;;;5109495;28;20289;-84
2021/12/27 10:28:02;;;;;;;36.43;6.73;;;;;;;;;;5110543;28;20284;-84
2021/12/27 10:30:30;;;;;;;39.13;7.83;;;;;;;;;;5108279;28;20649;-85
2021/12/27 10:33:08;;;;;;;41.37;7.00;;;;;;;;;;5100233;28;20198;-85
2021/12/27 10:35:36;;;;;;;41.33;7.40;;;;;;;;;;5109965;28;20228;-85
2021/12/27 10:38:14;;;;;;;45.43;8.17;;;;;;;;;;5108912;28;20407;-85
2021/12/27 10:40:48;;;;;;;44.00;7.53;;;;;;;;;;5111697;28;20236;-84
2021/12/27 10:43:17;;;;;;;45.93;7.43;;;;;;;;;;5102352;28;20239;-85
2021/12/27 10:45:46;;;;;;;46.20;8.40;;;;;;;;;;5106469;28;20385;-85
2021/12/27 10:48:20;;;;;;;44.07;7.27;;;;;;;;;;5091951;28;20289;-85
2021/12/27 10:50:48;;;;;;;44.60;9.43;;;;;;;;;;5107047;28;20230;-85
2021/12/27 10:53:16;;;;;;;47.87;8.50;;;;;;;;;;5109299;28;20204;-85
2021/12/27 10:55:46;;;;;;;45.73;8.63;;;;;;;;;;5113125;28;20309;-85
2021/12/27 10:58:18;;;;;;;41.20;7.40;;;;;;;;;;5111160;28;20722;-85
2021/12/27 11:00:46;;;;;;;44.50;7.90;;;;;;;;;;5114386;28;20201;-85
2021/12/27 11:03:30;;;;;;;50.23;9.07;;;;;;;;;;5113295;27;20236;-85
2021/12/27 11:05:58;;;;;;;35.40;7.80;;;;;;;;;;5112595;28;20702;-86
2021/12/27 11:08:27;;;;;;;35.03;7.40;;;;;;;;;;5112202;28;20228;-86
2021/12/27 11:10:54;;;;;;;41.80;7.43;;;;;;;;;;5112602;28;20204;-85
2021/12/27 11:13:22;;;;;;;39.83;8.17;;;;;;;;;;5113259;28;20225;-85
2021/12/27 11:15:50;;;;;;;39.40;7.87;;;;;;;;;;5112042;28;20221;-85
2021/12/27 11:18:17;;;;;;;39.23;7.90;;;;;;;;;;5113562;28;20744;-85
2021/12/27 11:20:46;;;;;;;50.27;8.87;;;;;;;;;;5112409;28;20291;-85
2021/12/27 11:23:14;;;;;;;48.27;8.40;;;;;;;;;;5109966;28;20247;-86
2021/12/27 11:25:44;;;;;;;40.77;7.57;;;;;;;;;;5113961;28;20276;-86
2021/12/27 11:28:27;;;;;;;45.43;7.77;;;;;;;;;;5113329;28;20276;-86
2021/12/27 11:30:55;;;;;;;49.50;8.10;;;;;;;;;;5114153;28;20700;-85
2021/12/27 11:33:22;;;;;;;45.10;8.47;;;;;;;;;;5111178;28;20201;-86
2021/12/27 11:36:09;;;;;;;37.67;8.00;;;;;;;;;;5106486;28;20241;-85
2021/12/27 11:38:38;;;;;;;41.30;7.43;;;;;;;;;;5111158;28;20229;-87
2021/12/27 11:41:07;;;;;;;38.90;6.20;;;;;;;;;;5111018;28;20281;-88
2021/12/27 11:43:51;;;;;;;39.40;7.00;;;;;;;;;;5113245;28;20673;-87
2021/12/27 11:46:19;;;;;;;45.43;6.87;;;;;;;;;;5112286;28;20205;-87
2021/12/27 11:48:47;;;;;;;41.57;7.27;;;;;;;;;;5113631;28;20248;-90
2021/12/27 11:51:15;;;;;;;37.20;6.77;;;;;;;;;;5113265;28;20221;-91
2021/12/27 11:53:50;;;;;;;40.37;7.10;;;;;;;;;;5108624;28;20193;-90
2021/12/27 11:56:33;;;;;;;38.93;7.33;;;;;;;;;;5110614;28;20225;-90
2021/12/27 11:59:00;;;;;;;39.33;7.57;;;;;;;;;;5113422;28;20197;-88
2021/12/27 12:01:38;;;;;;;38.70;8.17;;;;;;;;;;5121852;28;20190;-88
2021/12/27 12:04:06;;;;;;;37.93;7.70;;;;;;;;;;5108445;28;20241;-88
2021/12/27 12:06:37;;;;;;;37.20;7.17;;;;;;;;;;5112843;28;20244;-88
2021/12/27 12:09:10;;;;;;;38.73;7.97;;;;;;;;;;5111067;28;20272;-88
2021/12/27 12:11:39;;;;;;;40.37;7.53;;;;;;;;;;5110111;28;20221;-90
2021/12/27 12:14:25;;;;;;;38.90;7.67;;;;;;;;;;5114211;28;20285;-90
2021/12/27 12:16:53;;;;;;;42.33;7.33;;;;;;;;;;5112796;28;20304;-91
2021/12/27 12:19:35;;;;;;;42.20;7.43;;;;;;;;;;5113029;28;20277;-91
2021/12/27 12:22:02;;;;;;;38.27;6.43;;;;;;;;;;5110560;28;20205;-89
2021/12/27 12:24:30;;;;;;;40.63;7.27;;;;;;;;;;5108496;28;20198;-91
2021/12/27 12:27:00;;;;;;;46.43;8.37;;;;;;;;;;5111079;28;20668;-89
2021/12/27 12:29:28;;;;;;;47.27;7.53;;;;;;;;;;5111989;28;20223;-90
2021/12/27 12:31:58;;;;;;;41.10;7.30;;;;;;;;;;5101881;28;20236;-91
2021/12/27 12:34:26;;;;;;;40.93;7.20;;;;;;;;;;5113156;28;20292;-91
2021/12/27 12:36:54;;;;;;;40.40;7.00;;;;;;;;;;5112766;28;20225;-89
2021/12/27 12:39:22;;;;;;;30.70;6.80;;;;;;;;;;5112505;28;20212;-89
2021/12/27 12:41:50;;;;;;;40.70;7.20;;;;;;;;;;5112465;28;20206;-87
2021/12/27 12:44:19;;;;;;;39.83;7.03;;;;;;;;;;5110876;28;20227;-86
2021/12/27 12:46:49;;;;;;;42.13;7.53;;;;;;;;;;5109008;28;20634;-87
2021/12/27 12:49:17;;;;;;;42.17;7.97;;;;;;;;;;5105122;27;20232;-87
2021/12/27 12:51:46;;;;;;;37.37;6.83;;;;;;;;;;5108043;28;20289;-87
2021/12/27 12:54:27;;;;;;;39.90;7.10;;;;;;;;;;5108188;28;20202;-88
2021/12/27 12:56:55;;;;;;;38.77;7.37;;;;;;;;;;5106679;28;20221;-88
2021/12/27 12:59:25;;;;;;;41.57;7.73;;;;;;;;;;5105130;28;20236;-87
2021/12/27 13:02:01;;;;;;;47.90;7.67;;;;;;;;;;5108726;28;20234;-87
2021/12/27 13:04:39;;;;;;;39.37;7.63;;;;;;;;;;5109445;28;20728;-87
2021/12/27 13:07:07;;;;;;;43.90;6.67;;;;;;;;;;5109612;28;20286;-86
2021/12/27 13:09:41;;;;;;;40.33;6.73;;;;;;;;;;5107729;28;20235;-87
2021/12/27 13:12:09;;;;;;;39.23;6.97;;;;;;;;;;5109168;28;20205;-87
2021/12/27 13:14:37;;;;;;;38.17;6.77;;;;;;;;;;5109875;28;20209;-87
2021/12/27 13:17:11;;;;;;;39.27;7.77;;;;;;;;;;5108570;28;20309;-87
2021/12/27 13:19:54;;;;;;;38.57;7.17;;;;;;;;;;5098484;28;20194;-88
2021/12/27 13:22:36;;;;;;;37.73;7.27;;;;;;;;;;5110230;28;20281;-88
2021/12/27 13:25:03;;;;;;;34.90;7.13;;;;;;;;;;5106375;28;20665;-88
2021/12/27 13:27:30;;;;;;;35.47;7.23;;;;;;;;;;5108570;28;20289;-87
2021/12/27 13:30:05;;;;;;;39.23;6.87;;;;;;;;;;5112993;28;20869;-88
2021/12/27 13:32:33;;;;;;;36.17;7.30;;;;;;;;;;5109301;28;20639;-87
2021/12/27 13:35:00;;;;;;;33.63;6.60;;;;;;;;;;5106080;28;20281;-88
2021/12/27 13:37:30;;;;;;;34.70;6.47;;;;;;;;;;5110439;28;20357;-88
2021/12/27 13:40:08;;;;;;;41.47;7.73;;;;;;;;;;5109703;28;20746;-86
2021/12/27 13:42:35;;;;;;;34.50;7.53;;;;;;;;;;5107973;28;20288;-87
2021/12/27 13:45:12;;;;;;;42.63;7.57;;;;;;;;;;5109839;28;20575;-87
2021/12/27 13:47:39;;;;;;;37.53;7.53;;;;;;;;;;5108972;28;20208;-85
2021/12/27 13:50:07;;;;;;;37.80;7.67;;;;;;;;;;5108051;28;20744;-85
2021/12/27 13:52:44;;;;;;;45.20;8.65;;;;;;;;;;5107969;27;20451;-86
2021/12/27 13:55:22;;;;;;;37.63;7.10;;;;;;;;;;5104272;28;20200;-84
2021/12/27 13:57:49;;;;;;;38.30;6.40;;;;;;;;;;5109765;28;20284;-86
2021/12/27 14:00:18;;;;;;;33.27;6.30;;;;;;;;;;5115472;28;20245;-85
2021/12/27 14:02:46;;;;;;;39.73;6.90;;;;;;;;;;5107082;28;20258;-86
2021/12/27 14:05:13;;;;;;;30.67;6.17;;;;;;;;;;5109502;28;20255;-87
2021/12/27 14:07:42;;;;;;;36.47;6.03;;;;;;;;;;5109529;28;20288;-86
2021/12/27 14:10:09;;;;;;;38.77;7.13;;;;;;;;;;5109072;28;20201;-87
2021/12/27 14:12:37;;;;;;;37.00;6.93;;;;;;;;;;5109755;28;20217;-87
2021/12/27 14:15:06;;;;;;;38.37;6.93;;;;;;;;;;5110447;28;20198;-87
2021/12/27 14:17:43;;;;;;;39.67;6.93;;;;;;;;;;5111136;28;20239;-87
2021/12/27 14:20:11;;;;;;;41.63;7.50;;;;;;;;;;5103363;28;21460;-88
2021/12/27 14:22:40;;;;;;;42.13;6.80;;;;;;;;;;5110278;28;20294;-88
2021/12/27 14:25:07;;;;;;;42.23;7.07;;;;;;;;;;5112873;28;20228;-87
2021/12/27 14:27:35;;;;;;;35.53;5.77;;;;;;;;;;5108959;28;20221;-87
2021/12/27 14:30:03;;;;;;;35.27;6.30;;;;;;;;;;5117442;28;20221;-89
2021/12/27 14:32:30;;;;;;;30.83;6.33;;;;;;;;;;5116069;28;20277;-85
2021/12/27 14:34:59;;;;;;;35.40;6.57;;;;;;;;;;5112808;28;20288;-87
2021/12/27 14:37:26;;;;;;;31.93;6.47;;;;;;;;;;5110643;28;20982;-85
2021/12/27 14:39:54;;;;;;;35.63;6.17;;;;;;;;;;5116491;27;20228;-86
2021/12/27 14:42:25;;;;;;;32.70;6.47;;;;;;;;;;5114002;28;20281;-85
2021/12/27 14:44:53;;;;;;;28.00;5.03;;;;;;;;;;5112312;28;20198;-86